createdAt,value
2023-01-23T00:01:41.052Z,100924.47
2023-01-23T00:04:12.677Z,100972.38
2023-01-23T00:06:41.038Z,100950.97
2023-01-23T00:09:09.659Z,100968.28
2023-01-23T00:11:37.643Z,100949.88
2023-01-23T00:14:06.041Z,100943.06
2023-01-23T00:16:34.498Z,100946.50
2023-01-23T00:19:02.692Z,100960.94
2023-01-23T00:21:31.294Z,100954.28
2023-01-23T00:24:01.858Z,100946.41
2023-01-23T00:26:33.169Z,100945.63
2023-01-23T00:29:02.169Z,100917.34
2023-01-23T00:31:35.867Z,100944.91
2023-01-23T00:34:08.321Z,100937.75
2023-01-23T00:36:39.948Z,100915.56
2023-01-23T00:39:13.414Z,100906.94
2023-01-23T00:41:46.964Z,100950.75
2023-01-23T00:44:16.538Z,100942.59
2023-01-23T00:46:44.675Z,100970.69
2023-01-23T00:49:13.029Z,100971.88
2023-01-23T00:51:40.969Z,100979.69
2023-01-23T00:54:08.977Z,100987.13
2023-01-23T00:56:37.212Z,100993.56
2023-01-23T00:59:05.381Z,100955.66
2023-01-23T01:01:33.957Z,100958.94
2023-01-23T01:04:02.495Z,100988.94
2023-01-23T01:06:31.367Z,100983.84
2023-01-23T01:09:00.490Z,101006.03
2023-01-23T01:11:32.782Z,100962.41
2023-01-23T01:14:01.729Z,100999.47
2023-01-23T01:16:30.265Z,101012.28
2023-01-23T01:18:59.640Z,101011.31
2023-01-23T01:21:28.250Z,100956.78
2023-01-23T01:23:56.452Z,101000.19
2023-01-23T01:26:27.299Z,101008.84
2023-01-23T01:28:55.889Z,101014.50
2023-01-23T01:31:26.567Z,101001.38
2023-01-23T01:33:55.769Z,100997.66
2023-01-23T01:36:24.858Z,101005.31
2023-01-23T01:38:52.711Z,101002.91
2023-01-23T01:41:20.711Z,100962.41
2023-01-23T01:43:49.059Z,101011.47
2023-01-23T01:46:26.831Z,101015.69
2023-01-23T01:49:30.993Z,101001.88
2023-01-23T01:52:10.479Z,101009.91
2023-01-23T01:54:54.875Z,101015.97
2023-01-23T01:57:31.427Z,101026.22
2023-01-23T02:00:11.329Z,101038.31
2023-01-23T02:03:12.887Z,101021.31
2023-01-23T02:05:45.519Z,101036.66
2023-01-23T02:08:46.969Z,101042.34
2023-01-23T02:11:17.086Z,101043.25
2023-01-23T02:13:46.119Z,101032.34
2023-01-23T02:16:23.895Z,101024.53
2023-01-23T02:18:59.055Z,101056.31
2023-01-23T02:21:27.726Z,101050.19
2023-01-23T02:24:48.471Z,101053.22
2023-01-23T02:27:18.060Z,101049.97
2023-01-23T02:29:48.430Z,101036.38
2023-01-23T02:32:19.841Z,101061.22
2023-01-23T02:34:49.168Z,101011.47
2023-01-23T02:37:17.746Z,101050.72
2023-01-23T02:39:45.873Z,101031.34
2023-01-23T02:42:14.164Z,101044.25
2023-01-23T02:44:47.422Z,101030.63
2023-01-23T02:47:18.907Z,101068.88
2023-01-23T02:49:46.886Z,101013.09
2023-01-23T02:52:15.539Z,101057.78
2023-01-23T02:54:43.643Z,101035.53
2023-01-23T02:57:11.485Z,101014.84
2023-01-23T03:00:03.052Z,101065.16
2023-01-23T03:02:32.867Z,101067.78
2023-01-23T03:05:00.852Z,101073.06
2023-01-23T03:07:29.496Z,101082.78
2023-01-23T03:09:57.533Z,101069.88
2023-01-23T03:12:25.851Z,101086.28
2023-01-23T03:14:58.956Z,101085.09
2023-01-23T03:17:28.933Z,101092.25
2023-01-23T03:19:57.884Z,101026.09
2023-01-23T03:22:26.882Z,101080.50
2023-01-23T03:24:57.900Z,101082.66
2023-01-23T03:27:25.985Z,101074.66
2023-01-23T03:30:16.201Z,101078.53
2023-01-23T03:32:45.917Z,101042.25
2023-01-23T03:35:20.644Z,101083.31
2023-01-23T03:42:05.818Z,101102.41
2023-01-23T03:44:33.871Z,101095.78
2023-01-23T03:47:01.868Z,101055.34
2023-01-23T03:49:30.554Z,101068.41
2023-01-23T03:52:00.393Z,101074.03
2023-01-23T03:54:29.806Z,101109.44
2023-01-23T03:56:57.987Z,101104.34
2023-01-23T03:59:44.727Z,101104.34
2023-01-23T04:02:13.527Z,101111.28
2023-01-23T04:04:41.587Z,101112.38
2023-01-23T04:07:10.664Z,101111.09
2023-01-23T04:09:40.911Z,101041.16
2023-01-23T04:12:09.327Z,101119.97
2023-01-23T04:14:41.314Z,101110.41
2023-01-23T04:17:11.256Z,101103.00
2023-01-23T04:19:39.134Z,101108.94
2023-01-23T04:22:07.803Z,101057.41
2023-01-23T04:24:42.087Z,101085.59
2023-01-23T04:27:10.203Z,101053.13
2023-01-23T04:29:38.637Z,101085.75
2023-01-23T04:37:01.254Z,101103.56
2023-01-23T04:39:29.524Z,101115.75
2023-01-23T04:41:57.671Z,101102.94
2023-01-23T04:44:39.445Z,101108.16
2023-01-23T04:47:25.802Z,101110.97
2023-01-23T04:49:54.031Z,101115.00
2023-01-23T04:52:21.998Z,101122.56
2023-01-23T04:54:58.266Z,101136.41
2023-01-23T04:57:26.627Z,101107.13
2023-01-23T05:00:12.321Z,101124.31
2023-01-23T05:02:40.396Z,101098.16
2023-01-23T05:05:10.058Z,101120.00
2023-01-23T05:07:39.619Z,101144.13
2023-01-23T05:10:12.952Z,101108.94
2023-01-23T05:12:41.647Z,101139.22
2023-01-23T05:15:11.423Z,101106.66
2023-01-23T05:17:42.273Z,101071.81
2023-01-23T05:20:12.170Z,101136.47
2023-01-23T05:22:52.719Z,101136.16
2023-01-23T05:25:28.148Z,101137.63
2023-01-23T05:27:57.936Z,101142.31
2023-01-23T05:30:26.836Z,101109.44
2023-01-23T05:33:04.757Z,101136.53
2023-01-23T05:35:32.910Z,101103.56
2023-01-23T05:38:01.555Z,101022.16
2023-01-23T05:40:29.688Z,101151.69
2023-01-23T05:43:15.981Z,101120.16
2023-01-23T05:46:03.707Z,101153.72
2023-01-23T05:48:40.647Z,101152.25
2023-01-23T05:51:12.301Z,101114.97
2023-01-23T05:53:42.846Z,101162.69
2023-01-23T05:56:12.596Z,101160.50
2023-01-23T05:58:56.222Z,101161.03
2023-01-23T06:01:43.290Z,101169.28
2023-01-23T06:04:30.095Z,101171.56
2023-01-23T06:07:15.632Z,101186.88
2023-01-23T06:09:43.950Z,101126.69
2023-01-23T06:12:12.888Z,101179.69
2023-01-23T06:14:40.776Z,101141.63
2023-01-23T06:22:36.454Z,101192.47
2023-01-23T06:25:10.435Z,101201.38
2023-01-23T06:27:39.012Z,101214.34
2023-01-23T06:30:10.687Z,101199.88
2023-01-23T06:32:43.162Z,101173.84
2023-01-23T06:35:12.220Z,101165.72
2023-01-23T06:37:42.943Z,101224.44
2023-01-23T06:40:15.010Z,101231.31
2023-01-23T06:42:54.754Z,101239.31
2023-01-23T06:45:23.890Z,101237.31
2023-01-23T06:47:53.590Z,101192.34
2023-01-23T06:50:22.227Z,101253.25
2023-01-23T06:52:51.031Z,101239.38
2023-01-23T06:55:21.313Z,101198.06
2023-01-23T06:57:49.607Z,101227.22
2023-01-23T07:00:18.593Z,101254.63
2023-01-23T07:02:47.016Z,101247.78
2023-01-23T07:05:15.439Z,101253.81
2023-01-23T07:07:47.120Z,101223.66
2023-01-23T07:10:15.139Z,101249.34
2023-01-23T07:12:43.222Z,101211.03
2023-01-23T07:15:11.978Z,101204.41
2023-01-23T07:17:42.149Z,101263.56
2023-01-23T07:20:11.144Z,101274.53
2023-01-23T07:22:46.625Z,101217.25
2023-01-23T07:25:14.626Z,101278.31
2023-01-23T07:27:42.634Z,101277.41
2023-01-23T07:30:13.671Z,101285.09
2023-01-23T07:32:41.644Z,101267.78
2023-01-23T07:35:10.301Z,101284.97
2023-01-23T07:37:38.748Z,101295.22
2023-01-23T07:40:07.344Z,101295.72
2023-01-23T07:42:35.807Z,101229.91
2023-01-23T07:45:04.420Z,101302.66
2023-01-23T07:47:32.609Z,101261.44
2023-01-23T07:50:00.621Z,101305.00
2023-01-23T07:52:28.975Z,101289.44
2023-01-23T07:54:57.227Z,101273.25
2023-01-23T07:57:25.210Z,101255.44
2023-01-23T07:59:56.514Z,101293.81
2023-01-23T08:02:24.428Z,101299.81
2023-01-23T08:04:52.452Z,101291.19
2023-01-23T08:07:20.721Z,101302.53
2023-01-23T08:09:48.763Z,101158.41
2023-01-23T08:12:16.709Z,101277.53
2023-01-23T08:14:44.932Z,101308.25
2023-01-23T08:17:12.901Z,101287.66
2023-01-23T08:19:40.926Z,101305.78
2023-01-23T08:22:09.028Z,101311.97
2023-01-23T08:24:37.160Z,101307.31
2023-01-23T08:27:05.456Z,101314.13
2023-01-23T08:33:46.716Z,101298.88
2023-01-23T08:36:14.804Z,101307.38
2023-01-23T08:38:42.939Z,101307.19
2023-01-23T08:41:14.583Z,101233.81
2023-01-23T08:43:42.643Z,101315.06
2023-01-23T08:46:11.782Z,101294.50
2023-01-23T08:48:40.259Z,101308.56
2023-01-23T08:51:12.994Z,101191.28
2023-01-23T08:53:42.434Z,101278.78
2023-01-23T08:56:19.382Z,101270.72
2023-01-23T08:58:47.993Z,101305.41
2023-01-23T09:01:23.261Z,101311.94
2023-01-23T09:03:51.699Z,101322.16
2023-01-23T09:06:22.962Z,101262.00
2023-01-23T09:08:51.407Z,101272.53
2023-01-23T09:11:20.143Z,101310.94
2023-01-23T09:13:48.396Z,101303.31
2023-01-23T09:16:17.459Z,101317.75
2023-01-23T09:18:45.865Z,101322.16
2023-01-23T09:21:17.737Z,101320.13
2023-01-23T09:23:48.041Z,101307.13
2023-01-23T09:26:19.708Z,101239.41
2023-01-23T09:28:47.968Z,101322.00
2023-01-23T09:31:16.803Z,101319.81
2023-01-23T09:33:45.043Z,101318.53
2023-01-23T09:36:14.403Z,101288.09
2023-01-23T09:38:42.744Z,101305.44
2023-01-23T09:41:23.840Z,101264.31
2023-01-23T09:44:03.205Z,101300.09
2023-01-23T09:46:54.367Z,101273.16
2023-01-23T09:50:02.288Z,101298.50
2023-01-23T09:52:37.033Z,101299.47
2023-01-23T09:55:36.398Z,101272.03
2023-01-23T09:58:05.936Z,101302.56
2023-01-23T10:00:34.584Z,101284.13
2023-01-23T10:03:11.752Z,101289.41
2023-01-23T10:06:20.480Z,101294.66
2023-01-23T10:09:09.505Z,101270.78
2023-01-23T10:12:18.953Z,101249.94
2023-01-23T10:15:40.498Z,101281.47
2023-01-23T10:18:49.416Z,101251.41
2023-01-23T10:22:22.249Z,101293.16
2023-01-23T10:24:55.480Z,101239.81
2023-01-23T10:27:46.189Z,101292.00
2023-01-23T10:30:33.794Z,101246.56
2023-01-23T10:33:29.354Z,101287.56
2023-01-23T10:36:03.736Z,101291.94
2023-01-23T10:38:59.911Z,101293.97
2023-01-23T10:41:28.343Z,101244.22
2023-01-23T10:43:57.719Z,101278.34
2023-01-23T10:46:35.996Z,101283.16
2023-01-23T10:49:04.641Z,101246.19
2023-01-23T10:51:49.107Z,101274.28
2023-01-23T10:54:33.084Z,101284.03
2023-01-23T10:57:24.881Z,101280.41
2023-01-23T11:00:18.047Z,101282.84
2023-01-23T11:02:46.570Z,101280.28
2023-01-23T11:05:51.623Z,101275.66
2023-01-23T11:08:51.912Z,101225.31
2023-01-23T11:11:25.927Z,101273.94
2023-01-23T11:14:17.087Z,101289.22
2023-01-23T11:16:45.154Z,101280.34
2023-01-23T11:19:22.044Z,101275.16
2023-01-23T11:21:55.279Z,101222.13
2023-01-23T11:24:38.392Z,101280.66
2023-01-23T11:27:13.597Z,101277.28
2023-01-23T11:30:09.322Z,101268.78
2023-01-23T11:33:15.082Z,101272.22
2023-01-23T11:35:56.158Z,101265.84
2023-01-23T11:38:32.375Z,101236.59
2023-01-23T11:41:00.955Z,101265.44
2023-01-23T11:43:29.096Z,101224.59
2023-01-23T11:46:26.248Z,101269.66
2023-01-23T11:49:20.659Z,101219.03
2023-01-23T11:52:33.990Z,101267.94
2023-01-23T11:55:45.701Z,101280.22
2023-01-23T11:58:26.439Z,101266.31
2023-01-23T12:01:23.052Z,101275.97
2023-01-23T12:04:05.540Z,101225.84
2023-01-23T12:06:49.384Z,101266.22
2023-01-23T12:09:21.561Z,101272.16
2023-01-23T12:12:40.379Z,101271.38
2023-01-23T12:16:05.804Z,101251.97
2023-01-23T12:18:47.633Z,101271.72
2023-01-23T12:21:48.893Z,101270.97
2023-01-23T12:24:45.792Z,101272.16
2023-01-23T12:27:44.827Z,101213.19
2023-01-23T12:30:40.673Z,101268.88
2023-01-23T12:33:33.557Z,101272.97
2023-01-23T12:36:44.417Z,101270.56
2023-01-23T12:40:08.603Z,101257.53
2023-01-23T12:43:23.033Z,101279.56
2023-01-23T12:46:06.079Z,101237.94
2023-01-23T12:48:45.572Z,101282.97
2023-01-23T12:51:27.439Z,101226.94
2023-01-23T12:53:58.880Z,101277.44
2023-01-23T12:56:33.973Z,101258.84
2023-01-23T12:59:31.586Z,101285.34
2023-01-23T13:02:35.835Z,101295.16
2023-01-23T13:05:40.395Z,101291.34
2023-01-23T13:08:38.408Z,101295.22
2023-01-23T13:11:39.699Z,101300.88
2023-01-23T13:14:32.744Z,101318.16
2023-01-23T13:17:04.188Z,101299.31
2023-01-23T13:19:59.487Z,101295.88
2023-01-23T13:22:34.173Z,101292.59
2023-01-23T13:25:10.533Z,101251.91
2023-01-23T13:27:58.862Z,101274.94
2023-01-23T13:30:27.329Z,101241.81
2023-01-23T13:33:01.857Z,101301.09
2023-01-23T13:35:45.122Z,101291.22
2023-01-23T13:38:22.487Z,101297.00
2023-01-23T13:41:06.281Z,101306.63
2023-01-23T13:43:54.198Z,101319.03
2023-01-23T13:46:31.187Z,101319.09
2023-01-23T14:22:08.643Z,101279.13
2023-01-23T14:24:53.431Z,101318.44
2023-01-23T14:27:51.352Z,101320.41
2023-01-23T14:30:30.420Z,101306.66
2023-01-23T14:33:01.853Z,101327.72
2023-01-23T14:35:33.455Z,101281.38
2023-01-23T14:38:07.479Z,101326.41
2023-01-23T14:40:50.224Z,101281.59
2023-01-23T14:43:27.004Z,101313.69
2023-01-23T14:46:11.896Z,101329.00
2023-01-23T14:48:43.647Z,101334.16
2023-01-23T14:51:24.192Z,101326.69
2023-01-23T14:53:56.528Z,101335.63
2023-01-23T14:56:36.222Z,101342.38
2023-01-23T14:59:16.427Z,101346.59
2023-01-23T15:01:55.381Z,101341.69
2023-01-23T15:04:28.082Z,101335.25
2023-01-23T15:07:01.875Z,101291.47
2023-01-23T15:09:43.440Z,101354.44
2023-01-23T15:12:19.105Z,101339.94
2023-01-23T15:14:53.106Z,101352.84
2023-01-23T15:17:22.701Z,101347.75
2023-01-23T15:19:56.699Z,101309.31
2023-01-23T15:22:30.105Z,101339.28
2023-01-23T15:25:38.452Z,101336.56
2023-01-23T15:28:39.279Z,101324.84
2023-01-23T15:31:28.599Z,101356.63
2023-01-23T15:34:16.353Z,101368.78
2023-01-23T15:37:09.573Z,101366.81
2023-01-23T15:39:54.939Z,101355.09
2023-01-23T15:42:35.075Z,101315.00
2023-01-23T15:45:13.253Z,101314.66
2023-01-23T15:47:42.138Z,101363.72
2023-01-23T15:50:13.753Z,101355.16
2023-01-23T15:52:54.002Z,101341.66
2023-01-23T15:55:28.454Z,101344.69
2023-01-23T15:57:57.347Z,101361.28
2023-01-23T16:00:28.963Z,101365.88
2023-01-23T16:02:59.601Z,101319.19
2023-01-23T16:05:36.208Z,101370.06
2023-01-23T16:08:06.976Z,101363.25
2023-01-23T16:10:38.569Z,101324.66
2023-01-23T16:13:08.406Z,101355.84
2023-01-23T16:15:39.702Z,101240.34
2023-01-23T16:18:07.975Z,101355.84
2023-01-23T16:20:44.329Z,101375.50
2023-01-23T16:23:24.970Z,101343.88
2023-01-23T16:25:56.219Z,101372.94
2023-01-23T16:28:29.593Z,101379.97
2023-01-23T16:30:59.019Z,101328.38
2023-01-23T16:33:27.257Z,101380.88
2023-01-23T16:35:58.044Z,101254.06
2023-01-23T16:38:29.358Z,101383.59
2023-01-23T16:41:00.404Z,101379.97
2023-01-23T16:43:28.913Z,101338.91
2023-01-23T16:45:57.994Z,101351.84
2023-01-23T16:48:28.576Z,101375.56
2023-01-23T16:51:08.605Z,101386.84
2023-01-23T16:53:42.618Z,101381.81
2023-01-23T16:56:28.709Z,101362.06
2023-01-23T16:58:56.835Z,101380.22
2023-01-23T17:01:25.658Z,101381.81
2023-01-23T17:03:59.695Z,101319.13
2023-01-23T17:06:27.949Z,101319.94
2023-01-23T17:08:56.752Z,101370.78
2023-01-23T17:11:34.304Z,101375.81
2023-01-23T17:14:30.118Z,101366.03
2023-01-23T17:17:10.334Z,101235.16
2023-01-23T17:19:41.834Z,101345.09
2023-01-23T17:22:27.490Z,101271.63
2023-01-23T17:24:58.901Z,101339.84
2023-01-23T17:27:27.261Z,101385.47
2023-01-23T17:29:58.373Z,101389.75
2023-01-23T17:32:37.675Z,101342.59
2023-01-23T17:35:17.383Z,101402.91
2023-01-23T17:37:45.623Z,101382.53
2023-01-23T17:40:18.134Z,101365.31
2023-01-23T17:42:46.560Z,101413.25
2023-01-23T17:45:20.617Z,101408.16
2023-01-23T17:47:55.532Z,101413.53
2023-01-23T17:50:26.810Z,101416.81
2023-01-23T17:52:58.579Z,101407.28
2023-01-23T17:55:33.136Z,101402.16
2023-01-23T17:58:01.766Z,101400.28
2023-01-23T18:00:31.495Z,101409.75
2023-01-23T18:03:02.599Z,101396.03
2023-01-23T18:05:30.854Z,101401.78
2023-01-23T18:07:59.064Z,101420.28
2023-01-23T18:10:30.177Z,101406.31
2023-01-23T18:13:50.930Z,101412.38
2023-01-23T18:16:45.774Z,101378.88
2023-01-23T18:19:22.952Z,101388.47
2023-01-23T18:21:57.708Z,101411.47
2023-01-23T18:24:32.671Z,101366.84
2023-01-23T18:27:27.538Z,101400.75
2023-01-23T18:30:56.441Z,101412.09
2023-01-23T18:33:37.620Z,101414.09
2023-01-23T18:36:23.657Z,101403.13
2023-01-23T18:39:25.928Z,101413.19
2023-01-23T18:42:35.806Z,101420.75
2023-01-23T18:45:15.040Z,101351.81
2023-01-23T18:47:44.972Z,101408.72
2023-01-23T18:50:19.479Z,101410.13
2023-01-23T18:53:21.443Z,101396.16
2023-01-23T18:56:22.612Z,101430.13
2023-01-23T18:59:41.306Z,101427.22
2023-01-23T19:02:39.804Z,101427.00
2023-01-23T19:05:14.354Z,101437.34
2023-01-23T19:07:45.361Z,101423.97
2023-01-23T19:10:19.527Z,101430.94
2023-01-23T19:12:59.404Z,101434.97
2023-01-23T19:15:34.077Z,101427.75
2023-01-23T19:18:49.947Z,101406.88
2023-01-23T19:21:26.786Z,101412.34
2023-01-23T19:24:01.899Z,101424.06
2023-01-23T19:26:40.326Z,101420.59
2023-01-23T19:29:21.625Z,101371.72
2023-01-23T19:32:07.120Z,101370.84
2023-01-23T19:34:35.913Z,101419.59
2023-01-23T19:37:04.469Z,101411.38
2023-01-23T19:39:32.797Z,101412.63
2023-01-23T19:42:01.657Z,101413.03
2023-01-23T19:44:32.897Z,101411.38
2023-01-23T19:47:03.112Z,101427.56
2023-01-23T19:49:31.555Z,101419.72
2023-01-23T19:51:59.672Z,101422.56
2023-01-23T19:54:27.817Z,101389.06
2023-01-23T19:56:56.203Z,101367.50
2023-01-23T19:59:26.278Z,101382.25
2023-01-23T20:01:55.138Z,101424.06
2023-01-23T20:04:24.799Z,101430.13
2023-01-23T20:06:53.059Z,101431.19
2023-01-23T20:09:22.244Z,101385.28
2023-01-23T20:11:52.610Z,101434.28
2023-01-23T20:14:22.289Z,101439.25
2023-01-23T20:16:50.867Z,101438.38
2023-01-23T20:19:23.949Z,101433.25
2023-01-23T20:21:52.217Z,101382.44
2023-01-23T20:24:21.519Z,101432.34
2023-01-23T20:26:49.842Z,101396.03
2023-01-23T20:29:18.137Z,101448.53
2023-01-23T20:31:46.905Z,101376.81
2023-01-23T20:34:15.249Z,101447.22
2023-01-23T20:36:43.590Z,101444.09
2023-01-23T20:39:14.140Z,101429.63
2023-01-23T20:41:43.075Z,101441.38
2023-01-23T20:44:11.774Z,101453.34
2023-01-23T20:46:40.051Z,101449.78
2023-01-23T20:49:13.106Z,101450.09
2023-01-23T20:51:42.938Z,101448.69
2023-01-23T20:54:11.362Z,101447.09
2023-01-23T20:56:39.901Z,101440.69
2023-01-23T20:59:24.214Z,101424.03
2023-01-23T21:02:20.554Z,101450.31
2023-01-23T21:04:54.854Z,101442.19
2023-01-23T21:07:23.276Z,101436.06
2023-01-23T21:09:52.885Z,101414.69
2023-01-23T21:12:25.962Z,101453.44
2023-01-23T21:14:55.435Z,101440.00
2023-01-23T21:17:24.276Z,101448.41
2023-01-23T21:19:53.871Z,101449.50
2023-01-23T21:22:23.469Z,101455.84
2023-01-23T21:24:55.813Z,101458.66
2023-01-23T21:27:25.314Z,101462.31
2023-01-23T21:29:55.525Z,101448.13
2023-01-23T21:32:24.348Z,101449.16
2023-01-23T21:34:54.559Z,101467.03
2023-01-23T21:37:23.688Z,101450.75
2023-01-23T21:39:52.942Z,101436.03
2023-01-23T21:42:22.793Z,101465.47
2023-01-23T21:44:56.284Z,101463.47
2023-01-23T21:47:27.149Z,101416.97
2023-01-23T21:49:58.444Z,101460.09
2023-01-23T21:52:32.709Z,101462.78
2023-01-23T21:55:01.879Z,101459.09
2023-01-23T21:57:31.826Z,101424.25
2023-01-23T22:00:20.835Z,101447.78
2023-01-23T22:02:53.615Z,101454.44
2023-01-23T22:05:23.871Z,101463.47
2023-01-23T22:07:52.493Z,101415.03
2023-01-23T22:10:21.155Z,101449.97
2023-01-23T22:12:51.030Z,101343.72
2023-01-23T22:15:19.906Z,101459.69
2023-01-23T22:17:49.189Z,101457.94
2023-01-23T22:20:18.563Z,101448.41
2023-01-23T22:22:47.108Z,101440.00
2023-01-23T22:25:15.528Z,101464.41
2023-01-23T22:27:44.319Z,101453.13
2023-01-23T22:30:13.396Z,101414.97
2023-01-23T22:32:41.636Z,101465.59
2023-01-23T22:35:11.344Z,101478.06
2023-01-23T22:37:41.927Z,101469.16
2023-01-23T22:40:11.546Z,101469.97
2023-01-23T22:42:40.349Z,101473.53
2023-01-23T22:45:10.799Z,101430.50
2023-01-23T22:47:39.738Z,101478.69
2023-01-23T22:50:09.909Z,101464.97
2023-01-23T22:52:38.653Z,101466.56
2023-01-23T22:55:07.933Z,101478.63
2023-01-23T22:57:37.212Z,101361.06
2023-01-23T23:00:16.643Z,101476.06
2023-01-23T23:02:44.768Z,101473.25
2023-01-23T23:05:13.214Z,101432.59
2023-01-23T23:07:41.629Z,101458.03
2023-01-23T23:10:11.910Z,101456.13
2023-01-23T23:12:40.216Z,101409.59
2023-01-23T23:15:09.252Z,101473.03
2023-01-23T23:17:37.378Z,101424.75
2023-01-23T23:20:07.107Z,101472.97
2023-01-23T23:22:35.350Z,101475.50
2023-01-23T23:25:03.668Z,101479.16
2023-01-23T23:27:33.330Z,101467.88
2023-01-23T23:30:02.286Z,101475.69
2023-01-23T23:32:31.526Z,101432.88
2023-01-23T23:34:59.731Z,101484.06
2023-01-23T23:37:28.552Z,101481.72
2023-01-23T23:39:57.324Z,101474.00
2023-01-23T23:42:25.670Z,101471.44
2023-01-23T23:44:54.148Z,101487.22
2023-01-23T23:47:22.712Z,101483.91
2023-01-23T23:49:50.793Z,101483.97
2023-01-23T23:52:19.727Z,101482.06
2023-01-23T23:54:48.026Z,101449.72
2023-01-23T23:57:15.972Z,101491.78
2023-01-23T23:59:44.266Z,101478.69
